Estreito, Brazil
Current Conditions -  °F | °C
As of 5:00 PM on Friday 19 Dec 2014 (Local Time) from SBIZ Reporting Station
Few Clouds Few Clouds  
Wind Chill: 86°   Ceiling: Unl
Heat Index: 95°   Visibility: 6mi
Dew Point: 75°   Wind: 7mph
Humidity: 70%   Direction: 130°SE
Pressure: 29.8"   Gusts: NA
Location:  6.56°S, 47.45°W
Report Text: SBIZ 192000Z 13006KT 9999 FEW020 30/24 Q1009
Loading
Personal Weather Stations






























Interactive Weather Map New forecast layout! Learn more

10-Day Weather Forecast

Advertisements
Track Severe Weather on mobile